sensor_id;sensor_type;location;lat;lon;timestamp;P1;durP1;ratioP1;P2;durP2;ratioP2
68365;SDS011;55283;51.466;5.478;2023-04-03T00:01:26;2.10;;;1.60;;
68365;SDS011;55283;51.466;5.478;2023-04-03T00:03:51;2.40;;;1.70;;
68365;SDS011;55283;51.466;5.478;2023-04-03T00:06:17;1.98;;;1.70;;
68365;SDS011;55283;51.466;5.478;2023-04-03T00:08:43;3.53;;;1.80;;
68365;SDS011;55283;51.466;5.478;2023-04-03T00:11:09;2.37;;;1.70;;
68365;SDS011;55283;51.466;5.478;2023-04-03T00:13:35;2.00;;;1.52;;
68365;SDS011;55283;51.466;5.478;2023-04-03T00:16:00;3.40;;;1.70;;
68365;SDS011;55283;51.466;5.478;2023-04-03T00:18:26;2.00;;;1.60;;
68365;SDS011;55283;51.466;5.478;2023-04-03T00:20:52;2.20;;;1.63;;
68365;SDS011;55283;51.466;5.478;2023-04-03T00:23:17;3.20;;;1.73;;
68365;SDS011;55283;51.466;5.478;2023-04-03T00:25:43;3.73;;;1.60;;
68365;SDS011;55283;51.466;5.478;2023-04-03T00:28:09;2.75;;;1.80;;
68365;SDS011;55283;51.466;5.478;2023-04-03T00:30:35;2.70;;;1.70;;
68365;SDS011;55283;51.466;5.478;2023-04-03T00:33:00;3.60;;;1.83;;
68365;SDS011;55283;51.466;5.478;2023-04-03T00:35:26;2.20;;;1.60;;
68365;SDS011;55283;51.466;5.478;2023-04-03T00:37:52;2.43;;;1.80;;
68365;SDS011;55283;51.466;5.478;2023-04-03T00:40:19;2.42;;;1.70;;
68365;SDS011;55283;51.466;5.478;2023-04-03T00:42:45;2.03;;;1.60;;
68365;SDS011;55283;51.466;5.478;2023-04-03T00:48:11;2.47;;;1.70;;
68365;SDS011;55283;51.466;5.478;2023-04-03T00:50:58;2.50;;;1.60;;
68365;SDS011;55283;51.466;5.478;2023-04-03T00:53:29;2.70;;;1.70;;
68365;SDS011;55283;51.466;5.478;2023-04-03T00:55:58;2.03;;;1.50;;
68365;SDS011;55283;51.466;5.478;2023-04-03T00:58:28;2.00;;;1.55;;
68365;SDS011;55283;51.466;5.478;2023-04-03T01:01:05;2.20;;;1.67;;
68365;SDS011;55283;51.466;5.478;2023-04-03T01:03:35;2.10;;;1.53;;
68365;SDS011;55283;51.466;5.478;2023-04-03T01:06:01;2.17;;;1.60;;
68365;SDS011;55283;51.466;5.478;2023-04-03T01:08:26;2.23;;;1.60;;
68365;SDS011;55283;51.466;5.478;2023-04-03T01:10:52;2.47;;;1.63;;
68365;SDS011;55283;51.466;5.478;2023-04-03T01:13:18;2.87;;;1.70;;
68365;SDS011;55283;51.466;5.478;2023-04-03T01:15:46;2.72;;;1.90;;
68365;SDS011;55283;51.466;5.478;2023-04-03T01:18:11;2.87;;;1.70;;
68365;SDS011;55283;51.466;5.478;2023-04-03T01:23:53;2.20;;;1.70;;
68365;SDS011;55283;51.466;5.478;2023-04-03T01:26:27;2.67;;;1.60;;
68365;SDS011;55283;51.466;5.478;2023-04-03T01:28:54;2.22;;;1.70;;
68365;SDS011;55283;51.466;5.478;2023-04-03T01:34:00;2.33;;;1.70;;
68365;SDS011;55283;51.466;5.478;2023-04-03T01:36:28;2.40;;;1.60;;
68365;SDS011;55283;51.466;5.478;2023-04-03T01:38:55;3.08;;;1.70;;
68365;SDS011;55283;51.466;5.478;2023-04-03T01:41:21;2.50;;;1.87;;
68365;SDS011;55283;51.466;5.478;2023-04-03T01:43:48;2.17;;;1.60;;
68365;SDS011;55283;51.466;5.478;2023-04-03T01:46:15;2.10;;;1.50;;
68365;SDS011;55283;51.466;5.478;2023-04-03T01:48:41;2.65;;;1.75;;
68365;SDS011;55283;51.466;5.478;2023-04-03T01:51:07;2.53;;;1.60;;
68365;SDS011;55283;51.466;5.478;2023-04-03T01:53:33;2.35;;;1.50;;
68365;SDS011;55283;51.466;5.478;2023-04-03T01:55:58;1.90;;;1.40;;
68365;SDS011;55283;51.466;5.478;2023-04-03T01:58:24;2.70;;;1.60;;
68365;SDS011;55283;51.466;5.478;2023-04-03T02:00:50;2.63;;;1.80;;
68365;SDS011;55283;51.466;5.478;2023-04-03T02:03:16;2.07;;;1.67;;
68365;SDS011;55283;51.466;5.478;2023-04-03T02:05:41;2.93;;;1.70;;
68365;SDS011;55283;51.466;5.478;2023-04-03T02:08:07;1.55;;;1.30;;
68365;SDS011;55283;51.466;5.478;2023-04-03T02:10:32;2.60;;;1.70;;
68365;SDS011;55283;51.466;5.478;2023-04-03T02:12:58;3.50;;;1.70;;
68365;SDS011;55283;51.466;5.478;2023-04-03T02:15:23;2.20;;;1.60;;
68365;SDS011;55283;51.466;5.478;2023-04-03T02:17:49;1.98;;;1.40;;
68365;SDS011;55283;51.466;5.478;2023-04-03T02:20:14;2.00;;;1.60;;
68365;SDS011;55283;51.466;5.478;2023-04-03T02:22:40;2.27;;;1.70;;
68365;SDS011;55283;51.466;5.478;2023-04-03T02:25:05;1.75;;;1.50;;
68365;SDS011;55283;51.466;5.478;2023-04-03T02:27:31;2.20;;;1.53;;
68365;SDS011;55283;51.466;5.478;2023-04-03T02:29:56;1.77;;;1.40;;
68365;SDS011;55283;51.466;5.478;2023-04-03T02:32:22;2.40;;;1.50;;
68365;SDS011;55283;51.466;5.478;2023-04-03T02:34:47;2.57;;;1.70;;
68365;SDS011;55283;51.466;5.478;2023-04-03T02:37:13;2.30;;;1.67;;
68365;SDS011;55283;51.466;5.478;2023-04-03T02:39:38;3.03;;;1.70;;
68365;SDS011;55283;51.466;5.478;2023-04-03T02:42:04;2.03;;;1.50;;
68365;SDS011;55283;51.466;5.478;2023-04-03T02:44:31;1.77;;;1.45;;
68365;SDS011;55283;51.466;5.478;2023-04-03T02:46:56;2.07;;;1.77;;
68365;SDS011;55283;51.466;5.478;2023-04-03T02:49:21;1.80;;;1.53;;
68365;SDS011;55283;51.466;5.478;2023-04-03T02:51:47;2.13;;;1.53;;
68365;SDS011;55283;51.466;5.478;2023-04-03T02:54:12;2.53;;;1.50;;
68365;SDS011;55283;51.466;5.478;2023-04-03T02:56:38;1.67;;;1.33;;
68365;SDS011;55283;51.466;5.478;2023-04-03T02:59:03;2.07;;;1.60;;
68365;SDS011;55283;51.466;5.478;2023-04-03T03:01:30;2.13;;;1.55;;
68365;SDS011;55283;51.466;5.478;2023-04-03T03:03:57;2.10;;;1.40;;
68365;SDS011;55283;51.466;5.478;2023-04-03T03:06:24;1.97;;;1.47;;
68365;SDS011;55283;51.466;5.478;2023-04-03T03:08:49;1.60;;;1.33;;
68365;SDS011;55283;51.466;5.478;2023-04-03T03:11:15;2.00;;;1.50;;
68365;SDS011;55283;51.466;5.478;2023-04-03T03:13:41;1.90;;;1.60;;
68365;SDS011;55283;51.466;5.478;2023-04-03T03:16:06;2.23;;;1.60;;
68365;SDS011;55283;51.466;5.478;2023-04-03T03:18:32;2.00;;;1.30;;
68365;SDS011;55283;51.466;5.478;2023-04-03T03:20:58;1.50;;;1.40;;
68365;SDS011;55283;51.466;5.478;2023-04-03T03:23:25;2.88;;;1.60;;
68365;SDS011;55283;51.466;5.478;2023-04-03T03:25:56;1.90;;;1.60;;
68365;SDS011;55283;51.466;5.478;2023-04-03T03:28:22;2.20;;;1.50;;
68365;SDS011;55283;51.466;5.478;2023-04-03T03:30:47;2.40;;;1.67;;
68365;SDS011;55283;51.466;5.478;2023-04-03T03:33:13;2.08;;;1.58;;
68365;SDS011;55283;51.466;5.478;2023-04-03T03:35:38;2.57;;;1.63;;
68365;SDS011;55283;51.466;5.478;2023-04-03T03:38:05;1.85;;;1.40;;
68365;SDS011;55283;51.466;5.478;2023-04-03T03:40:30;2.33;;;1.47;;
68365;SDS011;55283;51.466;5.478;2023-04-03T03:42:56;2.33;;;1.40;;
68365;SDS011;55283;51.466;5.478;2023-04-03T03:45:21;2.03;;;1.53;;
68365;SDS011;55283;51.466;5.478;2023-04-03T03:47:46;2.28;;;1.50;;
68365;SDS011;55283;51.466;5.478;2023-04-03T03:50:12;1.60;;;1.50;;
68365;SDS011;55283;51.466;5.478;2023-04-03T03:52:37;1.73;;;1.33;;
68365;SDS011;55283;51.466;5.478;2023-04-03T03:55:04;2.15;;;1.40;;
68365;SDS011;55283;51.466;5.478;2023-04-03T03:57:29;2.63;;;1.40;;
68365;SDS011;55283;51.466;5.478;2023-04-03T03:59:55;4.17;;;1.67;;
68365;SDS011;55283;51.466;5.478;2023-04-03T04:02:20;2.00;;;1.30;;
68365;SDS011;55283;51.466;5.478;2023-04-03T04:04:46;1.85;;;1.27;;
68365;SDS011;55283;51.466;5.478;2023-04-03T04:07:12;2.70;;;1.33;;
68365;SDS011;55283;51.466;5.478;2023-04-03T04:09:37;1.75;;;1.48;;
68365;SDS011;55283;51.466;5.478;2023-04-03T04:12:03;2.07;;;1.50;;
68365;SDS011;55283;51.466;5.478;2023-04-03T04:14:28;2.17;;;1.70;;
68365;SDS011;55283;51.466;5.478;2023-04-03T04:16:54;1.48;;;1.25;;
68365;SDS011;55283;51.466;5.478;2023-04-03T04:19:19;1.93;;;1.60;;
68365;SDS011;55283;51.466;5.478;2023-04-03T04:21:45;2.00;;;1.53;;
68365;SDS011;55283;51.466;5.478;2023-04-03T04:24:10;2.23;;;1.50;;
68365;SDS011;55283;51.466;5.478;2023-04-03T04:26:36;2.30;;;1.50;;
68365;SDS011;55283;51.466;5.478;2023-04-03T04:29:01;1.40;;;1.27;;
68365;SDS011;55283;51.466;5.478;2023-04-03T04:31:26;2.07;;;1.40;;
68365;SDS011;55283;51.466;5.478;2023-04-03T04:33:52;1.25;;;1.10;;
68365;SDS011;55283;51.466;5.478;2023-04-03T04:36:18;1.60;;;1.50;;
68365;SDS011;55283;51.466;5.478;2023-04-03T04:38:44;1.55;;;1.30;;
68365;SDS011;55283;51.466;5.478;2023-04-03T04:41:10;2.08;;;1.50;;
68365;SDS011;55283;51.466;5.478;2023-04-03T04:43:36;1.63;;;1.30;;
68365;SDS011;55283;51.466;5.478;2023-04-03T04:46:02;1.63;;;1.40;;
68365;SDS011;55283;51.466;5.478;2023-04-03T04:48:29;1.80;;;1.23;;
68365;SDS011;55283;51.466;5.478;2023-04-03T04:50:54;1.53;;;1.27;;
68365;SDS011;55283;51.466;5.478;2023-04-03T04:53:20;1.50;;;1.30;;
68365;SDS011;55283;51.466;5.478;2023-04-03T04:55:45;1.85;;;1.40;;
68365;SDS011;55283;51.466;5.478;2023-04-03T04:58:11;1.43;;;1.20;;
68365;SDS011;55283;51.466;5.478;2023-04-03T05:00:36;1.83;;;1.47;;
68365;SDS011;55283;51.466;5.478;2023-04-03T05:03:01;1.93;;;1.30;;
68365;SDS011;55283;51.466;5.478;2023-04-03T05:05:27;1.40;;;1.17;;
68365;SDS011;55283;51.466;5.478;2023-04-03T05:07:53;1.63;;;1.13;;
68365;SDS011;55283;51.466;5.478;2023-04-03T05:10:18;2.23;;;1.40;;
68365;SDS011;55283;51.466;5.478;2023-04-03T05:12:44;1.53;;;1.30;;
68365;SDS011;55283;51.466;5.478;2023-04-03T05:15:09;1.63;;;1.40;;
68365;SDS011;55283;51.466;5.478;2023-04-03T05:17:35;2.30;;;1.60;;
68365;SDS011;55283;51.466;5.478;2023-04-03T05:20:01;1.37;;;1.20;;
68365;SDS011;55283;51.466;5.478;2023-04-03T05:22:27;1.50;;;1.40;;
68365;SDS011;55283;51.466;5.478;2023-04-03T05:24:53;2.17;;;1.40;;
68365;SDS011;55283;51.466;5.478;2023-04-03T05:27:18;1.73;;;1.17;;
68365;SDS011;55283;51.466;5.478;2023-04-03T05:29:44;2.10;;;1.17;;
68365;SDS011;55283;51.466;5.478;2023-04-03T05:32:10;1.23;;;1.10;;
68365;SDS011;55283;51.466;5.478;2023-04-03T05:34:36;2.70;;;1.40;;
68365;SDS011;55283;51.466;5.478;2023-04-03T05:37:01;1.20;;;1.10;;
68365;SDS011;55283;51.466;5.478;2023-04-03T05:39:28;1.75;;;1.30;;
68365;SDS011;55283;51.466;5.478;2023-04-03T05:41:53;1.70;;;1.30;;
68365;SDS011;55283;51.466;5.478;2023-04-03T05:44:19;1.50;;;1.33;;
68365;SDS011;55283;51.466;5.478;2023-04-03T05:46:44;2.50;;;1.50;;
68365;SDS011;55283;51.466;5.478;2023-04-03T05:49:10;2.57;;;1.30;;
68365;SDS011;55283;51.466;5.478;2023-04-03T05:51:35;2.55;;;1.50;;
68365;SDS011;55283;51.466;5.478;2023-04-03T05:54:44;2.20;;;1.43;;
68365;SDS011;55283;51.466;5.478;2023-04-03T05:56:51;3.35;;;1.40;;
68365;SDS011;55283;51.466;5.478;2023-04-03T05:59:18;2.15;;;1.30;;
68365;SDS011;55283;51.466;5.478;2023-04-03T06:01:44;2.07;;;1.40;;
68365;SDS011;55283;51.466;5.478;2023-04-03T06:04:10;2.15;;;1.35;;
68365;SDS011;55283;51.466;5.478;2023-04-03T06:06:53;3.90;;;1.40;;
68365;SDS011;55283;51.466;5.478;2023-04-03T06:09:23;3.37;;;1.47;;
68365;SDS011;55283;51.466;5.478;2023-04-03T06:11:51;2.53;;;1.30;;
68365;SDS011;55283;51.466;5.478;2023-04-03T06:14:17;2.85;;;1.60;;
68365;SDS011;55283;51.466;5.478;2023-04-03T06:16:42;1.93;;;1.40;;
68365;SDS011;55283;51.466;5.478;2023-04-03T06:19:08;2.30;;;1.45;;
68365;SDS011;55283;51.466;5.478;2023-04-03T06:21:34;4.03;;;1.80;;
68365;SDS011;55283;51.466;5.478;2023-04-03T06:24:01;3.05;;;2.00;;
68365;SDS011;55283;51.466;5.478;2023-04-03T06:26:27;4.35;;;1.80;;
68365;SDS011;55283;51.466;5.478;2023-04-03T06:28:55;4.15;;;2.08;;
68365;SDS011;55283;51.466;5.478;2023-04-03T06:31:20;3.73;;;1.90;;
68365;SDS011;55283;51.466;5.478;2023-04-03T06:33:46;4.82;;;2.20;;
68365;SDS011;55283;51.466;5.478;2023-04-03T06:36:12;5.83;;;1.90;;
68365;SDS011;55283;51.466;5.478;2023-04-03T06:38:38;4.55;;;1.90;;
68365;SDS011;55283;51.466;5.478;2023-04-03T06:41:03;5.03;;;1.80;;
68365;SDS011;55283;51.466;5.478;2023-04-03T06:43:29;5.37;;;1.83;;
68365;SDS011;55283;51.466;5.478;2023-04-03T06:45:56;4.33;;;1.70;;
68365;SDS011;55283;51.466;5.478;2023-04-03T06:48:22;3.75;;;1.70;;
68365;SDS011;55283;51.466;5.478;2023-04-03T06:50:47;3.27;;;1.50;;
68365;SDS011;55283;51.466;5.478;2023-04-03T06:53:12;3.50;;;1.60;;
68365;SDS011;55283;51.466;5.478;2023-04-03T06:55:38;3.53;;;1.60;;
68365;SDS011;55283;51.466;5.478;2023-04-03T06:58:04;4.60;;;1.60;;
68365;SDS011;55283;51.466;5.478;2023-04-03T07:00:29;3.27;;;1.70;;
68365;SDS011;55283;51.466;5.478;2023-04-03T07:02:55;3.13;;;1.40;;
68365;SDS011;55283;51.466;5.478;2023-04-03T07:05:22;3.70;;;1.65;;
68365;SDS011;55283;51.466;5.478;2023-04-03T07:07:48;5.60;;;1.60;;
68365;SDS011;55283;51.466;5.478;2023-04-03T07:10:14;3.90;;;1.70;;
68365;SDS011;55283;51.466;5.478;2023-04-03T07:12:40;6.53;;;1.60;;
68365;SDS011;55283;51.466;5.478;2023-04-03T07:15:06;3.20;;;1.40;;
68365;SDS011;55283;51.466;5.478;2023-04-03T07:17:32;5.15;;;1.63;;
68365;SDS011;55283;51.466;5.478;2023-04-03T07:19:57;4.33;;;1.60;;
68365;SDS011;55283;51.466;5.478;2023-04-03T07:22:23;4.85;;;1.33;;
68365;SDS011;55283;51.466;5.478;2023-04-03T07:24:48;3.67;;;1.60;;
68365;SDS011;55283;51.466;5.478;2023-04-03T07:27:14;2.73;;;1.40;;
68365;SDS011;55283;51.466;5.478;2023-04-03T07:29:39;2.15;;;1.40;;
68365;SDS011;55283;51.466;5.478;2023-04-03T07:32:05;4.33;;;1.40;;
68365;SDS011;55283;51.466;5.478;2023-04-03T07:34:31;3.25;;;1.20;;
68365;SDS011;55283;51.466;5.478;2023-04-03T07:36:57;3.67;;;1.43;;
68365;SDS011;55283;51.466;5.478;2023-04-03T07:39:23;2.58;;;1.20;;
68365;SDS011;55283;51.466;5.478;2023-04-03T07:41:49;3.60;;;1.20;;
68365;SDS011;55283;51.466;5.478;2023-04-03T07:44:14;3.38;;;1.50;;
68365;SDS011;55283;51.466;5.478;2023-04-03T07:46:40;4.13;;;1.10;;
68365;SDS011;55283;51.466;5.478;2023-04-03T07:49:06;3.33;;;1.50;;
68365;SDS011;55283;51.466;5.478;2023-04-03T07:51:31;2.97;;;1.30;;
68365;SDS011;55283;51.466;5.478;2023-04-03T07:53:57;3.10;;;1.30;;
68365;SDS011;55283;51.466;5.478;2023-04-03T07:56:22;3.17;;;1.25;;
68365;SDS011;55283;51.466;5.478;2023-04-03T07:58:48;4.20;;;1.40;;
68365;SDS011;55283;51.466;5.478;2023-04-03T08:01:13;2.20;;;1.30;;
68365;SDS011;55283;51.466;5.478;2023-04-03T08:03:39;2.73;;;1.40;;
68365;SDS011;55283;51.466;5.478;2023-04-03T08:06:05;3.53;;;1.33;;
68365;SDS011;55283;51.466;5.478;2023-04-03T08:08:33;1.98;;;1.10;;
68365;SDS011;55283;51.466;5.478;2023-04-03T08:10:59;3.13;;;1.40;;
68365;SDS011;55283;51.466;5.478;2023-04-03T08:13:25;4.93;;;1.42;;
68365;SDS011;55283;51.466;5.478;2023-04-03T08:15:51;5.97;;;1.30;;
68365;SDS011;55283;51.466;5.478;2023-04-03T08:18:17;7.77;;;1.40;;
68365;SDS011;55283;51.466;5.478;2023-04-03T08:20:46;3.58;;;1.33;;
68365;SDS011;55283;51.466;5.478;2023-04-03T08:23:12;3.53;;;1.30;;
68365;SDS011;55283;51.466;5.478;2023-04-03T08:25:39;4.83;;;1.40;;
68365;SDS011;55283;51.466;5.478;2023-04-03T08:28:06;3.13;;;1.60;;
68365;SDS011;55283;51.466;5.478;2023-04-03T08:30:31;4.45;;;2.25;;
68365;SDS011;55283;51.466;5.478;2023-04-03T08:32:57;3.97;;;1.70;;
68365;SDS011;55283;51.466;5.478;2023-04-03T08:35:26;2.83;;;1.50;;
68365;SDS011;55283;51.466;5.478;2023-04-03T08:37:52;3.77;;;1.30;;
68365;SDS011;55283;51.466;5.478;2023-04-03T08:40:17;4.00;;;1.37;;
68365;SDS011;55283;51.466;5.478;2023-04-03T08:48:04;2.35;;;1.40;;
68365;SDS011;55283;51.466;5.478;2023-04-03T08:50:42;3.65;;;1.30;;
68365;SDS011;55283;51.466;5.478;2023-04-03T08:53:24;4.03;;;1.40;;
68365;SDS011;55283;51.466;5.478;2023-04-03T08:55:53;5.35;;;1.40;;
68365;SDS011;55283;51.466;5.478;2023-04-03T08:58:30;2.95;;;1.42;;
68365;SDS011;55283;51.466;5.478;2023-04-03T09:01:17;3.93;;;1.30;;
68365;SDS011;55283;51.466;5.478;2023-04-03T09:03:46;3.67;;;1.30;;
68365;SDS011;55283;51.466;5.478;2023-04-03T09:06:15;2.50;;;1.50;;
68365;SDS011;55283;51.466;5.478;2023-04-03T09:08:50;2.90;;;1.45;;
68365;SDS011;55283;51.466;5.478;2023-04-03T09:11:44;1.92;;;1.30;;
68365;SDS011;55283;51.466;5.478;2023-04-03T09:17:00;3.67;;;1.40;;
68365;SDS011;55283;51.466;5.478;2023-04-03T09:22:11;2.80;;;1.20;;
68365;SDS011;55283;51.466;5.478;2023-04-03T09:24:44;2.53;;;1.17;;
68365;SDS011;55283;51.466;5.478;2023-04-03T09:27:12;6.43;;;1.77;;
68365;SDS011;55283;51.466;5.478;2023-04-03T09:29:39;4.03;;;1.40;;
68365;SDS011;55283;51.466;5.478;2023-04-03T09:32:28;3.20;;;1.30;;
68365;SDS011;55283;51.466;5.478;2023-04-03T09:34:56;2.03;;;1.38;;
68365;SDS011;55283;51.466;5.478;2023-04-03T09:37:44;2.33;;;1.27;;
68365;SDS011;55283;51.466;5.478;2023-04-03T09:43:00;2.78;;;1.30;;
68365;SDS011;55283;51.466;5.478;2023-04-03T09:45:45;2.22;;;1.27;;
68365;SDS011;55283;51.466;5.478;2023-04-03T09:50:40;2.30;;;1.20;;
68365;SDS011;55283;51.466;5.478;2023-04-03T09:55:51;3.07;;;1.00;;
68365;SDS011;55283;51.466;5.478;2023-04-03T09:58:31;2.42;;;1.30;;
68365;SDS011;55283;51.466;5.478;2023-04-03T10:01:01;4.87;;;1.30;;
68365;SDS011;55283;51.466;5.478;2023-04-03T10:03:32;3.90;;;1.20;;
68365;SDS011;55283;51.466;5.478;2023-04-03T10:06:04;3.05;;;1.17;;
68365;SDS011;55283;51.466;5.478;2023-04-03T10:08:58;2.03;;;1.20;;
68365;SDS011;55283;51.466;5.478;2023-04-03T10:11:25;3.30;;;1.30;;
68365;SDS011;55283;51.466;5.478;2023-04-03T10:13:51;7.20;;;1.80;;
68365;SDS011;55283;51.466;5.478;2023-04-03T10:16:22;6.33;;;1.40;;
68365;SDS011;55283;51.466;5.478;2023-04-03T10:21:50;3.03;;;1.33;;
68365;SDS011;55283;51.466;5.478;2023-04-03T10:27:26;2.97;;;1.23;;
68365;SDS011;55283;51.466;5.478;2023-04-03T10:33:08;3.45;;;1.40;;
68365;SDS011;55283;51.466;5.478;2023-04-03T10:35:46;4.90;;;1.30;;
68365;SDS011;55283;51.466;5.478;2023-04-03T10:38:26;6.65;;;1.38;;
68365;SDS011;55283;51.466;5.478;2023-04-03T10:41:13;3.20;;;1.30;;
68365;SDS011;55283;51.466;5.478;2023-04-03T10:43:54;6.50;;;1.20;;
68365;SDS011;55283;51.466;5.478;2023-04-03T10:46:48;4.18;;;1.20;;
68365;SDS011;55283;51.466;5.478;2023-04-03T10:49:36;4.53;;;1.30;;
68365;SDS011;55283;51.466;5.478;2023-04-03T10:52:17;2.70;;;1.13;;
68365;SDS011;55283;51.466;5.478;2023-04-03T10:55:00;5.47;;;1.30;;
68365;SDS011;55283;51.466;5.478;2023-04-03T10:57:35;2.67;;;1.20;;
68365;SDS011;55283;51.466;5.478;2023-04-03T11:00:04;2.50;;;1.20;;
68365;SDS011;55283;51.466;5.478;2023-04-03T11:02:41;3.13;;;1.23;;
68365;SDS011;55283;51.466;5.478;2023-04-03T11:07:45;4.25;;;1.38;;
68365;SDS011;55283;51.466;5.478;2023-04-03T11:10:35;3.63;;;1.30;;
68365;SDS011;55283;51.466;5.478;2023-04-03T11:13:13;3.53;;;1.20;;
68365;SDS011;55283;51.466;5.478;2023-04-03T11:15:43;3.25;;;1.30;;
68365;SDS011;55283;51.466;5.478;2023-04-03T11:18:35;2.70;;;1.53;;
68365;SDS011;55283;51.466;5.478;2023-04-03T11:21:19;2.15;;;1.30;;
68365;SDS011;55283;51.466;5.478;2023-04-03T11:23:46;6.07;;;1.65;;
68365;SDS011;55283;51.466;5.478;2023-04-03T11:26:13;3.47;;;1.40;;
68365;SDS011;55283;51.466;5.478;2023-04-03T11:28:45;4.07;;;1.53;;
68365;SDS011;55283;51.466;5.478;2023-04-03T11:36:57;3.53;;;1.60;;
68365;SDS011;55283;51.466;5.478;2023-04-03T11:39:31;6.20;;;1.60;;
68365;SDS011;55283;51.466;5.478;2023-04-03T11:44:51;4.25;;;1.58;;
68365;SDS011;55283;51.466;5.478;2023-04-03T11:53:25;2.78;;;1.40;;
68365;SDS011;55283;51.466;5.478;2023-04-03T11:55:53;2.67;;;1.55;;
68365;SDS011;55283;51.466;5.478;2023-04-03T11:58:27;3.77;;;1.30;;
68365;SDS011;55283;51.466;5.478;2023-04-03T12:00:58;3.95;;;1.30;;
68365;SDS011;55283;51.466;5.478;2023-04-03T12:06:43;2.43;;;1.30;;
68365;SDS011;55283;51.466;5.478;2023-04-03T12:19:03;3.20;;;1.57;;
68365;SDS011;55283;51.466;5.478;2023-04-03T12:37:43;2.20;;;1.33;;
68365;SDS011;55283;51.466;5.478;2023-04-03T12:40:26;1.88;;;1.30;;
68365;SDS011;55283;51.466;5.478;2023-04-03T12:43:13;2.37;;;1.50;;
68365;SDS011;55283;51.466;5.478;2023-04-03T12:45:51;3.53;;;1.58;;
68365;SDS011;55283;51.466;5.478;2023-04-03T12:48:27;2.00;;;1.40;;
68365;SDS011;55283;51.466;5.478;2023-04-03T12:50:55;2.83;;;1.17;;
68365;SDS011;55283;51.466;5.478;2023-04-03T12:53:26;2.13;;;1.20;;
68365;SDS011;55283;51.466;5.478;2023-04-03T12:56:17;1.75;;;1.50;;
68365;SDS011;55283;51.466;5.478;2023-04-03T12:58:48;2.30;;;1.37;;
68365;SDS011;55283;51.466;5.478;2023-04-03T13:01:16;2.30;;;1.20;;
68365;SDS011;55283;51.466;5.478;2023-04-03T13:03:44;3.53;;;1.30;;
68365;SDS011;55283;51.466;5.478;2023-04-03T13:06:22;2.00;;;1.42;;
68365;SDS011;55283;51.466;5.478;2023-04-03T13:09:00;4.40;;;1.40;;
68365;SDS011;55283;51.466;5.478;2023-04-03T13:11:35;2.25;;;1.40;;
68365;SDS011;55283;51.466;5.478;2023-04-03T13:14:12;2.38;;;1.20;;
68365;SDS011;55283;51.466;5.478;2023-04-03T13:16:41;3.23;;;1.40;;
68365;SDS011;55283;51.466;5.478;2023-04-03T13:19:15;2.55;;;1.45;;
68365;SDS011;55283;51.466;5.478;2023-04-03T13:21:42;3.30;;;1.10;;
68365;SDS011;55283;51.466;5.478;2023-04-03T13:24:09;2.78;;;1.20;;
68365;SDS011;55283;51.466;5.478;2023-04-03T13:26:35;1.70;;;1.30;;
68365;SDS011;55283;51.466;5.478;2023-04-03T13:29:19;2.67;;;1.20;;
68365;SDS011;55283;51.466;5.478;2023-04-03T13:31:51;2.13;;;1.20;;
68365;SDS011;55283;51.466;5.478;2023-04-03T13:34:19;3.25;;;1.27;;
68365;SDS011;55283;51.466;5.478;2023-04-03T13:39:25;1.98;;;1.27;;
68365;SDS011;55283;51.466;5.478;2023-04-03T13:41:54;2.15;;;1.23;;
68365;SDS011;55283;51.466;5.478;2023-04-03T13:44:31;1.67;;;1.10;;
68365;SDS011;55283;51.466;5.478;2023-04-03T13:49:40;2.53;;;1.10;;
68365;SDS011;55283;51.466;5.478;2023-04-03T13:52:25;2.33;;;1.40;;
68365;SDS011;55283;51.466;5.478;2023-04-03T13:54:54;1.88;;;1.20;;
68365;SDS011;55283;51.466;5.478;2023-04-03T13:57:23;2.05;;;1.30;;
68365;SDS011;55283;51.466;5.478;2023-04-03T13:59:48;1.50;;;1.10;;
68365;SDS011;55283;51.466;5.478;2023-04-03T14:02:19;1.60;;;1.13;;
68365;SDS011;55283;51.466;5.478;2023-04-03T14:04:58;2.72;;;1.33;;
68365;SDS011;55283;51.466;5.478;2023-04-03T14:07:26;2.72;;;1.50;;
68365;SDS011;55283;51.466;5.478;2023-04-03T14:09:54;2.50;;;1.30;;
68365;SDS011;55283;51.466;5.478;2023-04-03T14:12:24;2.03;;;1.13;;
68365;SDS011;55283;51.466;5.478;2023-04-03T14:14:51;1.55;;;1.20;;
68365;SDS011;55283;51.466;5.478;2023-04-03T14:17:18;2.43;;;1.10;;
68365;SDS011;55283;51.466;5.478;2023-04-03T14:19:46;1.40;;;1.10;;
68365;SDS011;55283;51.466;5.478;2023-04-03T14:22:24;1.95;;;1.10;;
68365;SDS011;55283;51.466;5.478;2023-04-03T14:24:51;1.52;;;1.20;;
68365;SDS011;55283;51.466;5.478;2023-04-03T14:27:19;1.57;;;1.40;;
68365;SDS011;55283;51.466;5.478;2023-04-03T14:29:47;5.30;;;1.40;;
68365;SDS011;55283;51.466;5.478;2023-04-03T14:32:19;1.83;;;1.20;;
68365;SDS011;55283;51.466;5.478;2023-04-03T14:34:46;2.83;;;1.13;;
68365;SDS011;55283;51.466;5.478;2023-04-03T14:37:13;2.30;;;1.20;;
68365;SDS011;55283;51.466;5.478;2023-04-03T14:39:40;2.22;;;1.15;;
68365;SDS011;55283;51.466;5.478;2023-04-03T14:42:10;1.70;;;1.20;;
68365;SDS011;55283;51.466;5.478;2023-04-03T14:44:37;1.70;;;1.10;;
68365;SDS011;55283;51.466;5.478;2023-04-03T14:47:03;1.73;;;1.10;;
68365;SDS011;55283;51.466;5.478;2023-04-03T14:49:28;1.80;;;1.10;;
68365;SDS011;55283;51.466;5.478;2023-04-03T14:51:55;2.17;;;1.20;;
68365;SDS011;55283;51.466;5.478;2023-04-03T14:54:22;3.15;;;1.20;;
68365;SDS011;55283;51.466;5.478;2023-04-03T14:56:52;2.30;;;1.15;;
68365;SDS011;55283;51.466;5.478;2023-04-03T14:59:18;2.13;;;1.10;;
68365;SDS011;55283;51.466;5.478;2023-04-03T15:01:46;1.50;;;1.10;;
68365;SDS011;55283;51.466;5.478;2023-04-03T15:04:16;1.23;;;1.10;;
68365;SDS011;55283;51.466;5.478;2023-04-03T15:06:44;2.17;;;1.25;;
68365;SDS011;55283;51.466;5.478;2023-04-03T15:09:14;2.43;;;1.17;;
68365;SDS011;55283;51.466;5.478;2023-04-03T15:11:45;1.52;;;1.00;;
68365;SDS011;55283;51.466;5.478;2023-04-03T15:14:11;2.77;;;1.10;;
68365;SDS011;55283;51.466;5.478;2023-04-03T15:16:36;1.40;;;1.17;;
68365;SDS011;55283;51.466;5.478;2023-04-03T15:19:01;2.03;;;1.10;;
68365;SDS011;55283;51.466;5.478;2023-04-03T15:21:27;1.95;;;1.23;;
68365;SDS011;55283;51.466;5.478;2023-04-03T15:23:53;2.63;;;1.23;;
68365;SDS011;55283;51.466;5.478;2023-04-03T15:26:18;2.10;;;1.13;;
68365;SDS011;55283;51.466;5.478;2023-04-03T15:28:44;2.03;;;1.10;;
68365;SDS011;55283;51.466;5.478;2023-04-03T15:31:10;1.67;;;1.00;;
68365;SDS011;55283;51.466;5.478;2023-04-03T15:33:35;2.15;;;1.10;;
68365;SDS011;55283;51.466;5.478;2023-04-03T15:36:02;1.73;;;1.17;;
68365;SDS011;55283;51.466;5.478;2023-04-03T15:38:28;4.32;;;1.23;;
68365;SDS011;55283;51.466;5.478;2023-04-03T15:40:54;1.93;;;1.10;;
68365;SDS011;55283;51.466;5.478;2023-04-03T15:43:20;2.75;;;1.00;;
68365;SDS011;55283;51.466;5.478;2023-04-03T15:45:46;1.77;;;1.17;;
68365;SDS011;55283;51.466;5.478;2023-04-03T15:48:12;2.90;;;1.10;;
68365;SDS011;55283;51.466;5.478;2023-04-03T15:50:38;1.67;;;1.00;;
68365;SDS011;55283;51.466;5.478;2023-04-03T15:53:04;1.20;;;1.10;;
68365;SDS011;55283;51.466;5.478;2023-04-03T15:55:31;2.95;;;1.00;;
68365;SDS011;55283;51.466;5.478;2023-04-03T15:57:58;2.28;;;1.02;;
68365;SDS011;55283;51.466;5.478;2023-04-03T16:00:24;2.27;;;1.00;;
68365;SDS011;55283;51.466;5.478;2023-04-03T16:02:51;2.60;;;1.10;;
68365;SDS011;55283;51.466;5.478;2023-04-03T16:05:20;3.13;;;1.20;;
68365;SDS011;55283;51.466;5.478;2023-04-03T16:07:46;2.43;;;1.20;;
68365;SDS011;55283;51.466;5.478;2023-04-03T16:10:13;1.80;;;1.00;;
68365;SDS011;55283;51.466;5.478;2023-04-03T16:12:40;1.92;;;1.00;;
68365;SDS011;55283;51.466;5.478;2023-04-03T16:15:05;1.70;;;1.10;;
68365;SDS011;55283;51.466;5.478;2023-04-03T16:17:33;7.05;;;1.10;;
68365;SDS011;55283;51.466;5.478;2023-04-03T16:20:00;1.77;;;1.20;;
68365;SDS011;55283;51.466;5.478;2023-04-03T16:22:27;3.05;;;1.10;;
68365;SDS011;55283;51.466;5.478;2023-04-03T16:24:53;2.88;;;1.00;;